Time;durP1;ratioP1;P1;durP2;ratioP2;P2;SDS_P1;SDS_P2;PMS_P1;PMS_P2;Temp;Humidity;BMP_temperature;BMP_pressure;BME280_temperature;BME280_humidity;BME280_pressure;Samples;Min_cycle;Max_cycle;Signal;HPM_P1;HPM_P2
2022/11/18 00:01:22;;;;;;;10.90;6.10;;;8.40;99.90;;;;;;5069733;28;20037;-83
2022/11/18 00:03:49;;;;;;;10.80;7.18;;;8.40;99.90;;;;;;5094781;28;20564;-83
2022/11/18 00:06:23;;;;;;;11.23;6.82;;;8.40;99.90;;;;;;5057029;28;20056;-83
2022/11/18 00:08:49;;;;;;;12.68;6.95;;;8.40;99.90;;;;;;5059956;28;20036;-83
2022/11/18 00:14:20;;;;;;;12.93;7.35;;;8.50;99.90;;;;;;5028760;28;20052;-77
2022/11/18 00:16:47;;;;;;;10.35;6.07;;;8.40;99.90;;;;;;5043201;28;20444;-77
2022/11/18 00:19:13;;;;;;;14.32;7.72;;;8.40;99.90;;;;;;5042631;28;20037;-77
2022/11/18 00:21:39;;;;;;;13.63;7.18;;;8.40;99.90;;;;;;5039484;28;20362;-77
2022/11/18 00:24:05;;;;;;;12.88;7.40;;;8.40;99.90;;;;;;5059297;28;20135;-77
2022/11/18 00:26:31;;;;;;;14.60;7.93;;;8.40;99.90;;;;;;5099329;28;20131;-77
2022/11/18 00:28:57;;;;;;;13.38;7.75;;;8.40;99.90;;;;;;5054706;28;20064;-77
2022/11/18 00:31:23;;;;;;;17.33;8.38;;;8.60;99.90;;;;;;5047055;28;20476;-77
2022/11/18 00:33:48;;;;;;;13.43;8.00;;;8.50;99.90;;;;;;5055243;28;20504;-77
2022/11/18 00:36:14;;;;;;;18.38;8.73;;;8.40;99.90;;;;;;5070706;28;20036;-77
2022/11/18 00:38:40;;;;;;;14.52;8.82;;;8.50;99.90;;;;;;5043904;28;20033;-77
2022/11/18 00:41:08;;;;;;;14.43;8.68;;;8.50;99.90;;;;;;5052448;28;20048;-77
2022/11/18 00:43:34;;;;;;;17.90;10.52;;;8.50;99.90;;;;;;5038912;28;20043;-77
2022/11/18 00:46:00;;;;;;;15.40;8.55;;;8.40;99.90;;;;;;5053716;28;20036;-77
2022/11/18 00:48:26;;;;;;;16.38;8.52;;;8.50;99.90;;;;;;5057176;28;20113;-77
2022/11/18 00:50:54;;;;;;;17.10;9.15;;;8.50;99.90;;;;;;5068993;28;20040;-77
2022/11/18 00:53:21;;;;;;;19.27;10.30;;;8.50;99.90;;;;;;5071368;28;20124;-77
2022/11/18 00:55:47;;;;;;;17.83;9.45;;;9.10;99.90;;;;;;5038068;28;20051;-77
2022/11/18 00:58:14;;;;;;;15.20;10.02;;;8.60;99.90;;;;;;5041323;28;20044;-77
2022/11/18 01:00:44;;;;;;;16.75;9.65;;;8.50;99.90;;;;;;5067689;28;20377;-79
2022/11/18 01:03:11;;;;;;;18.92;9.85;;;8.60;99.90;;;;;;5066758;28;20036;-79
2022/11/18 01:05:38;;;;;;;17.58;10.23;;;8.60;99.90;;;;;;5104452;28;20088;-79
2022/11/18 01:08:06;;;;;;;17.48;10.40;;;8.50;99.90;;;;;;5070204;28;20049;-79
2022/11/18 01:10:32;;;;;;;19.42;9.73;;;8.70;99.90;;;;;;5052155;28;20048;-79
2022/11/18 01:15:45;;;;;;;18.27;9.15;;;8.60;99.90;;;;;;5053847;28;20052;-79
2022/11/18 01:18:10;;;;;;;16.90;9.60;;;8.60;99.90;;;;;;5103375;28;20028;-80
2022/11/18 01:20:36;;;;;;;22.10;10.90;;;8.80;99.90;;;;;;5036131;28;20170;-80
2022/11/18 01:23:03;;;;;;;19.38;10.30;;;8.60;99.90;;;;;;5055569;28;20045;-80
2022/11/18 01:25:28;;;;;;;15.57;7.70;;;8.60;99.90;;;;;;5041422;28;20044;-80
2022/11/18 01:27:54;;;;;;;17.67;9.55;;;8.90;99.90;;;;;;5054536;28;20041;-80
2022/11/18 01:30:20;;;;;;;16.77;9.55;;;8.60;99.90;;;;;;5098687;28;20039;-80
2022/11/18 01:32:46;;;;;;;19.08;9.43;;;8.60;99.90;;;;;;5075964;28;20051;-80
2022/11/18 01:35:12;;;;;;;20.40;9.48;;;8.60;99.90;;;;;;5055528;28;20040;-80
2022/11/18 01:37:38;;;;;;;18.02;9.95;;;8.60;99.90;;;;;;5070353;28;20029;-80
2022/11/18 01:40:06;;;;;;;17.98;10.68;;;8.60;99.90;;;;;;5037457;28;20036;-80
2022/11/18 01:42:32;;;;;;;19.35;10.35;;;8.60;99.90;;;;;;5054540;28;20490;-80
2022/11/18 01:45:29;;;;;;;19.98;9.80;;;8.60;99.90;;;;;;5040879;28;20213;-80
2022/11/18 01:48:10;;;;;;;25.05;10.50;;;8.60;99.90;;;;;;5048301;28;20047;-80
2022/11/18 01:50:41;;;;;;;19.02;10.70;;;8.60;99.90;;;;;;5048273;28;20507;-80
2022/11/18 01:53:13;;;;;;;21.30;9.57;;;8.60;99.90;;;;;;5073450;28;20111;-80
2022/11/18 01:55:44;;;;;;;25.48;9.65;;;8.60;99.90;;;;;;5069851;28;20029;-80
2022/11/18 01:58:20;;;;;;;21.08;9.75;;;8.60;99.90;;;;;;5054294;28;20048;-80
2022/11/18 02:00:46;;;;;;;19.77;9.63;;;8.60;99.90;;;;;;5054996;28;20449;-80
2022/11/18 02:03:12;;;;;;;20.95;10.95;;;8.80;99.90;;;;;;5070608;28;20106;-80
2022/11/18 02:05:40;;;;;;;20.67;9.93;;;8.60;99.90;;;;;;5045395;28;20080;-80
2022/11/18 02:08:06;;;;;;;20.88;9.63;;;8.60;99.90;;;;;;5041837;28;20407;-79
2022/11/18 02:10:32;;;;;;;22.17;10.00;;;8.60;99.90;;;;;;5043743;28;20044;-79
2022/11/18 02:12:59;;;;;;;22.55;10.13;;;8.60;99.90;;;;;;5044696;28;20047;-79
2022/11/18 02:15:41;;;;;;;21.55;10.80;;;8.60;99.90;;;;;;5057047;28;20094;-79
2022/11/18 02:18:25;;;;;;;19.48;9.35;;;8.60;99.90;;;;;;5068169;28;20036;-79
2022/11/18 02:20:59;;;;;;;22.08;10.82;;;8.60;99.90;;;;;;5063228;28;20392;-79
2022/11/18 02:23:27;;;;;;;20.70;9.30;;;8.60;99.90;;;;;;5053998;28;20389;-79
2022/11/18 02:26:15;;;;;;;23.83;10.27;;;8.60;99.90;;;;;;5065916;28;20032;-79
2022/11/18 02:28:46;;;;;;;23.20;10.07;;;8.60;99.90;;;;;;5056059;28;20040;-79
2022/11/18 02:31:44;;;;;;;20.77;10.57;;;8.60;99.90;;;;;;5056422;28;20059;-79
2022/11/18 02:34:48;;;;;;;19.02;9.82;;;8.60;99.90;;;;;;5059084;28;20079;-79
2022/11/18 02:37:17;;;;;;;21.98;9.27;;;8.60;99.90;;;;;;5058800;28;20060;-79
2022/11/18 02:39:57;;;;;;;24.70;10.73;;;8.60;99.90;;;;;;5066746;28;20060;-77
2022/11/18 02:42:25;;;;;;;19.63;10.35;;;8.60;99.90;;;;;;5057435;28;20475;-77
2022/11/18 02:44:57;;;;;;;26.73;9.57;;;8.60;99.90;;;;;;5057704;28;20056;-77
2022/11/18 02:47:26;;;;;;;21.50;10.38;;;8.80;99.90;;;;;;5077050;28;20092;-77
2022/11/18 02:49:59;;;;;;;24.40;11.35;;;8.60;99.90;;;;;;5055798;28;20090;-77
2022/11/18 02:52:26;;;;;;;20.35;10.70;;;8.60;99.90;;;;;;5043220;28;20037;-77
2022/11/18 02:54:54;;;;;;;20.77;10.07;;;8.60;99.90;;;;;;5051286;28;20045;-77
2022/11/18 02:57:21;;;;;;;22.02;10.13;;;8.90;99.90;;;;;;5064234;28;20063;-84
2022/11/18 02:59:47;;;;;;;22.80;9.77;;;9.00;99.90;;;;;;5040593;28;20036;-84
2022/11/18 03:02:15;;;;;;;18.45;9.88;;;8.60;99.90;;;;;;5058845;28;20047;-84
2022/11/18 03:04:42;;;;;;;21.17;11.38;;;9.10;99.90;;;;;;5108942;28;20041;-83
2022/11/18 03:07:38;;;;;;;20.23;10.15;;;8.50;99.90;;;;;;5058323;28;20045;-84
2022/11/18 03:10:03;;;;;;;20.40;10.32;;;8.50;99.90;;;;;;5055421;28;20121;-84
2022/11/18 03:12:56;;;;;;;20.35;11.27;;;8.60;99.90;;;;;;5055122;28;20086;-84
2022/11/18 03:15:39;;;;;;;21.08;9.85;;;8.60;99.90;;;;;;5055312;28;20375;-77
2022/11/18 03:18:23;;;;;;;18.13;8.93;;;9.20;99.90;;;;;;5043873;28;20036;-79
2022/11/18 03:20:52;;;;;;;21.23;10.50;;;8.50;99.90;;;;;;5042453;28;20036;-79
2022/11/18 03:23:32;;;;;;;24.15;10.35;;;8.50;99.90;;;;;;5057096;28;20044;-79
2022/11/18 03:26:05;;;;;;;19.83;10.48;;;8.60;99.90;;;;;;5041550;28;20036;-79
2022/11/18 03:28:59;;;;;;;18.95;9.85;;;8.60;99.90;;;;;;5063061;28;20404;-79
2022/11/18 03:31:42;;;;;;;19.27;9.38;;;8.50;99.90;;;;;;5055626;28;20102;-77
2022/11/18 03:34:19;;;;;;;22.80;10.80;;;8.50;99.90;;;;;;5073598;28;20037;-78
2022/11/18 03:36:50;;;;;;;21.05;10.45;;;8.50;99.90;;;;;;5057663;28;20037;-77
2022/11/18 03:39:18;;;;;;;23.65;9.73;;;8.50;99.90;;;;;;5057200;28;20076;-77
2022/11/18 03:41:57;;;;;;;25.60;10.73;;;8.50;99.90;;;;;;5056938;28;20044;-77
2022/11/18 03:44:26;;;;;;;19.63;9.82;;;8.40;99.90;;;;;;5067490;28;20040;-77
2022/11/18 03:46:59;;;;;;;23.27;11.07;;;8.40;99.90;;;;;;5053602;28;20097;-79
2022/11/18 03:49:52;;;;;;;18.48;9.60;;;8.40;99.90;;;;;;5051241;28;20037;-77
2022/11/18 03:52:24;;;;;;;19.90;8.85;;;8.40;99.90;;;;;;5057813;28;20044;-77
2022/11/18 03:54:53;;;;;;;21.38;9.68;;;8.50;99.90;;;;;;5067515;28;20076;-77
2022/11/18 03:57:24;;;;;;;22.63;11.23;;;9.10;99.90;;;;;;5086627;28;20461;-77
2022/11/18 03:59:58;;;;;;;21.38;9.60;;;8.30;99.90;;;;;;5059669;28;20043;-78
2022/11/18 04:02:26;;;;;;;23.15;10.65;;;8.40;99.90;;;;;;5064658;28;20059;-77
2022/11/18 04:04:55;;;;;;;19.10;9.60;;;8.40;99.90;;;;;;5043289;28;20048;-83
2022/11/18 04:07:26;;;;;;;23.45;11.38;;;8.40;99.90;;;;;;5057625;28;20096;-84
2022/11/18 04:10:02;;;;;;;19.33;9.52;;;8.30;99.90;;;;;;5057623;28;20404;-84
2022/11/18 04:12:32;;;;;;;23.50;11.50;;;8.90;99.90;;;;;;5040350;28;20059;-83
2022/11/18 04:14:58;;;;;;;20.80;10.38;;;8.40;99.90;;;;;;5057035;28;20041;-83
2022/11/18 04:17:27;;;;;;;20.90;10.27;;;8.40;99.90;;;;;;5069927;28;20044;-83
2022/11/18 04:19:53;;;;;;;24.88;10.57;;;9.50;99.90;;;;;;5037826;28;20037;-78
2022/11/18 04:22:20;;;;;;;19.70;9.70;;;9.30;99.90;;;;;;5057589;28;20036;-77
2022/11/18 04:24:45;;;;;;;23.42;11.23;;;8.40;99.90;;;;;;5066547;28;20476;-77
2022/11/18 04:27:11;;;;;;;21.23;10.18;;;8.20;99.90;;;;;;5039325;28;20039;-77
2022/11/18 04:29:37;;;;;;;19.35;10.07;;;8.20;99.90;;;;;;5056028;28;20072;-77
2022/11/18 04:32:03;;;;;;;23.55;10.02;;;8.30;99.90;;;;;;5055893;28;20032;-77
2022/11/18 04:34:29;;;;;;;20.90;9.25;;;8.30;99.90;;;;;;5070872;28;20049;-77
2022/11/18 04:36:56;;;;;;;24.58;10.10;;;8.20;99.90;;;;;;5056314;28;20766;-83
2022/11/18 04:39:21;;;;;;;20.25;10.40;;;8.20;99.90;;;;;;5056627;28;20032;-83
2022/11/18 04:41:56;;;;;;;22.90;11.57;;;8.30;99.90;;;;;;5068655;28;20117;-83
2022/11/18 04:44:32;;;;;;;22.55;11.27;;;8.50;99.90;;;;;;5072906;28;20056;-83
2022/11/18 04:47:01;;;;;;;24.42;10.40;;;8.20;99.90;;;;;;5058756;28;20071;-84
2022/11/18 04:49:27;;;;;;;23.70;11.20;;;8.10;99.90;;;;;;5056119;28;20043;-83
2022/11/18 04:51:54;;;;;;;23.13;10.73;;;8.10;99.90;;;;;;5057547;28;20538;-83
2022/11/18 04:54:20;;;;;;;18.08;10.25;;;8.10;99.90;;;;;;5060087;28;20041;-77
2022/11/18 04:56:47;;;;;;;23.00;10.90;;;8.20;99.90;;;;;;5047110;28;20101;-77
2022/11/18 04:59:14;;;;;;;23.77;11.30;;;8.30;99.90;;;;;;5068176;28;20080;-77
2022/11/18 05:01:39;;;;;;;19.30;9.80;;;8.10;99.90;;;;;;5050213;28;20040;-77
2022/11/18 05:04:06;;;;;;;24.77;11.18;;;8.50;99.90;;;;;;5064699;22;20051;-81
2022/11/18 05:06:33;;;;;;;18.70;9.98;;;8.10;99.90;;;;;;5055914;28;20488;-81
2022/11/18 05:08:59;;;;;;;21.48;11.52;;;8.10;99.90;;;;;;5055919;28;20044;-80
2022/11/18 05:14:11;;;;;;;20.15;10.48;;;8.10;99.90;;;;;;5056021;28;20044;-82
2022/11/18 05:16:37;;;;;;;21.58;10.32;;;8.10;99.90;;;;;;5056784;28;20044;-82
2022/11/18 05:19:04;;;;;;;16.75;9.43;;;8.00;99.90;;;;;;5056308;28;20043;-82
2022/11/18 05:21:30;;;;;;;22.50;10.38;;;8.10;99.90;;;;;;5046978;28;20106;-82
2022/11/18 05:23:57;;;;;;;18.35;9.45;;;9.00;99.90;;;;;;5072554;28;20381;-82
2022/11/18 05:26:23;;;;;;;20.75;10.73;;;8.60;99.90;;;;;;5106379;28;20047;-83
2022/11/18 05:28:49;;;;;;;21.90;10.02;;;8.20;99.90;;;;;;5056780;28;20040;-84
2022/11/18 05:31:15;;;;;;;17.55;9.40;;;8.00;99.90;;;;;;5089770;28;20033;-84
2022/11/18 05:33:42;;;;;;;20.27;10.23;;;8.00;99.90;;;;;;5039421;28;20080;-84
2022/11/18 05:36:13;;;;;;;19.65;8.95;;;9.40;99.90;;;;;;5055922;28;20037;-84
2022/11/18 05:38:40;;;;;;;19.23;9.80;;;8.00;99.90;;;;;;5072093;28;20054;-83
2022/11/18 05:41:06;;;;;;;21.45;10.23;;;8.20;99.90;;;;;;5054978;28;20078;-83
2022/11/18 05:43:33;;;;;;;18.92;8.98;;;9.60;99.90;;;;;;5055018;28;20128;-82
2022/11/18 05:46:00;;;;;;;17.58;10.38;;;8.00;99.90;;;;;;5055635;28;20037;-82
2022/11/18 05:48:25;;;;;;;22.63;9.73;;;8.70;99.90;;;;;;5070869;28;20120;-82
2022/11/18 05:50:52;;;;;;;19.23;10.05;;;8.00;99.90;;;;;;5039222;28;20459;-82
2022/11/18 05:53:20;;;;;;;20.92;10.35;;;8.00;99.90;;;;;;5056328;28;20081;-82
2022/11/18 05:55:59;;;;;;;19.33;9.82;;;9.50;99.90;;;;;;5039340;28;20028;-82
2022/11/18 05:58:25;;;;;;;16.70;8.52;;;8.10;99.90;;;;;;5053810;28;20040;-82
2022/11/18 06:00:55;;;;;;;20.52;9.75;;;8.00;99.90;;;;;;5050786;28;20044;-82
2022/11/18 06:03:28;;;;;;;17.40;9.90;;;9.10;99.90;;;;;;5092877;28;20061;-82
2022/11/18 06:05:55;;;;;;;22.25;10.13;;;8.00;99.90;;;;;;5056056;28;20049;-82
2022/11/18 06:08:25;;;;;;;22.00;10.05;;;8.00;99.90;;;;;;5083149;28;20128;-82
2022/11/18 06:10:51;;;;;;;19.75;9.95;;;9.10;99.90;;;;;;5077568;28;20041;-82
2022/11/18 06:13:28;;;;;;;21.35;9.13;;;8.00;99.90;;;;;;5045271;28;20162;-82
2022/11/18 06:15:54;;;;;;;20.90;10.27;;;8.00;99.90;;;;;;5045627;28;20036;-82
2022/11/18 06:18:25;;;;;;;17.70;9.00;;;9.40;99.90;;;;;;5059678;28;20041;-80
2022/11/18 06:20:54;;;;;;;18.20;9.02;;;9.00;99.90;;;;;;5045603;28;20056;-81
2022/11/18 06:23:20;;;;;;;20.73;9.93;;;9.10;99.90;;;;;;5061817;28;20388;-80
2022/11/18 06:25:46;;;;;;;19.30;9.73;;;8.00;99.90;;;;;;5045089;28;20047;-81
2022/11/18 06:28:14;;;;;;;21.02;8.63;;;8.40;99.90;;;;;;5045980;28;20056;-81
2022/11/18 06:30:40;;;;;;;17.88;9.30;;;8.60;99.90;;;;;;5079420;28;20043;-80
2022/11/18 06:33:05;;;;;;;18.17;8.77;;;8.00;99.90;;;;;;5060343;28;20483;-81
2022/11/18 06:35:31;;;;;;;19.42;10.48;;;7.90;99.90;;;;;;5040747;28;20040;-81
2022/11/18 06:37:57;;;;;;;19.25;9.20;;;8.00;99.90;;;;;;5043767;28;20047;-80
2022/11/18 06:40:23;;;;;;;18.92;10.23;;;8.20;99.90;;;;;;5060118;28;20045;-81
2022/11/18 06:45:32;;;;;;;17.27;8.75;;;8.00;99.90;;;;;;5077245;28;20049;-83
2022/11/18 06:47:59;;;;;;;21.40;9.75;;;8.70;99.90;;;;;;5066199;28;20117;-83
2022/11/18 06:50:26;;;;;;;15.68;8.25;;;8.30;99.90;;;;;;5077061;28;20446;-83
2022/11/18 06:52:51;;;;;;;18.95;9.25;;;7.90;99.90;;;;;;5094167;28;20060;-83
2022/11/18 06:55:18;;;;;;;17.38;8.60;;;8.30;99.90;;;;;;5060055;28;20488;-83
2022/11/18 06:57:43;;;;;;;27.77;10.70;;;7.90;99.90;;;;;;5059228;28;20041;-83
2022/11/18 07:00:10;;;;;;;19.77;9.15;;;7.90;99.90;;;;;;5058684;28;20103;-83
2022/11/18 07:02:36;;;;;;;20.95;9.60;;;7.90;99.90;;;;;;5108985;28;20123;-83
2022/11/18 07:05:03;;;;;;;21.52;9.95;;;8.70;99.90;;;;;;5074919;28;20045;-83
2022/11/18 07:07:29;;;;;;;18.27;9.80;;;7.80;99.90;;;;;;5059184;28;20087;-86
2022/11/18 07:09:54;;;;;;;17.55;9.85;;;7.90;99.90;;;;;;5075951;28;20122;-86
2022/11/18 07:12:20;;;;;;;18.70;9.38;;;8.40;99.90;;;;;;5091796;28;20104;-85
2022/11/18 07:14:46;;;;;;;21.20;9.18;;;8.30;99.90;;;;;;5075449;28;20140;-86
2022/11/18 07:17:12;;;;;;;19.08;9.45;;;7.90;99.90;;;;;;5061145;28;20036;-83
2022/11/18 07:19:38;;;;;;;16.92;9.40;;;7.90;99.90;;;;;;5041802;28;20044;-83
2022/11/18 07:22:06;;;;;;;20.38;9.20;;;8.00;99.90;;;;;;5059367;28;20051;-83
2022/11/18 07:24:32;;;;;;;19.83;9.20;;;7.80;99.90;;;;;;5057621;28;20066;-82
2022/11/18 07:26:58;;;;;;;23.80;10.00;;;9.70;99.90;;;;;;5041796;28;20118;-82
2022/11/18 07:29:24;;;;;;;21.33;9.90;;;7.80;99.90;;;;;;5074811;28;20045;-82
2022/11/18 07:31:50;;;;;;;22.55;9.27;;;9.10;99.90;;;;;;5074692;28;20123;-82
2022/11/18 07:34:16;;;;;;;22.73;9.43;;;7.80;99.90;;;;;;5048869;28;20045;-82
2022/11/18 07:36:42;;;;;;;20.55;9.57;;;9.30;99.90;;;;;;5041584;28;20040;-83
2022/11/18 07:39:08;;;;;;;22.40;9.57;;;8.50;99.90;;;;;;5056687;28;20400;-82
2022/11/18 07:41:34;;;;;;;18.23;9.68;;;7.70;99.90;;;;;;5094637;28;20040;-81
2022/11/18 07:44:01;;;;;;;16.73;8.75;;;8.30;99.90;;;;;;5057571;28;20048;-80
2022/11/18 07:46:30;;;;;;;19.35;9.13;;;8.30;99.90;;;;;;5090277;28;20040;-81
2022/11/18 07:48:57;;;;;;;20.30;8.95;;;7.70;99.90;;;;;;5057436;28;20123;-80
2022/11/18 07:51:28;;;;;;;21.38;10.05;;;7.60;99.90;;;;;;5068215;28;20040;-80
2022/11/18 07:53:54;;;;;;;21.10;9.23;;;7.60;99.90;;;;;;5055634;28;20048;-80
2022/11/18 07:56:21;;;;;;;17.63;9.30;;;7.90;99.90;;;;;;5069834;28;20341;-80
2022/11/18 07:58:47;;;;;;;24.73;9.95;;;8.70;99.90;;;;;;5052364;28;20037;-80
2022/11/18 08:01:18;;;;;;;19.38;9.63;;;7.60;99.90;;;;;;5071151;28;20044;-80
2022/11/18 08:03:45;;;;;;;23.13;9.75;;;7.60;99.90;;;;;;5106584;28;20052;-80
2022/11/18 08:06:12;;;;;;;23.90;9.13;;;7.60;99.90;;;;;;5073318;28;20114;-80
2022/11/18 08:08:38;;;;;;;32.05;11.68;;;7.60;99.90;;;;;;5040198;28;20047;-80
2022/11/18 08:11:07;;;;;;;22.17;8.55;;;7.60;99.90;;;;;;5088244;28;20123;-80
2022/11/18 08:13:33;;;;;;;18.88;7.97;;;7.50;99.90;;;;;;5057158;28;20480;-81
2022/11/18 08:15:59;;;;;;;25.33;8.90;;;7.80;99.90;;;;;;5040263;28;20071;-80
2022/11/18 08:18:27;;;;;;;17.92;7.88;;;7.50;99.90;;;;;;5073474;28;20036;-80
2022/11/18 08:20:53;;;;;;;21.45;8.43;;;7.50;99.90;;;;;;5039498;28;20033;-80
2022/11/18 08:23:19;;;;;;;19.50;9.15;;;8.70;99.90;;;;;;5040805;28;20043;-80
2022/11/18 08:25:45;;;;;;;23.15;9.43;;;9.10;99.90;;;;;;5056967;28;20090;-81
2022/11/18 08:28:11;;;;;;;18.70;8.68;;;7.50;99.90;;;;;;5072314;28;20396;-80
2022/11/18 08:30:38;;;;;;;20.90;8.43;;;7.50;99.90;;;;;;5056474;28;20037;-80
2022/11/18 08:33:03;;;;;;;24.17;8.98;;;7.90;99.90;;;;;;5072993;28;20079;-80
2022/11/18 08:35:30;;;;;;;17.63;9.05;;;7.40;99.90;;;;;;5070224;28;20103;-80
2022/11/18 08:37:57;;;;;;;18.83;8.98;;;7.40;99.90;;;;;;5073202;28;20076;-80
2022/11/18 08:40:22;;;;;;;17.13;8.00;;;7.80;99.90;;;;;;5073256;28;20040;-81
2022/11/18 08:42:48;;;;;;;15.85;6.55;;;7.40;99.90;;;;;;5093412;28;20449;-80
2022/11/18 08:45:14;;;;;;;18.23;7.65;;;7.40;99.90;;;;;;5056197;28;20040;-80
2022/11/18 08:47:40;;;;;;;14.82;6.55;;;7.60;99.90;;;;;;5089956;28;20041;-85
2022/11/18 08:50:08;;;;;;;17.27;8.05;;;7.40;99.90;;;;;;5073127;28;20055;-86
2022/11/18 08:52:33;;;;;;;16.08;6.65;;;7.40;99.90;;;;;;5056024;28;20041;-86
2022/11/18 08:54:59;;;;;;;18.20;7.30;;;7.40;99.90;;;;;;5057635;28;20043;-86
2022/11/18 08:57:25;;;;;;;17.25;7.85;;;7.60;99.90;;;;;;5057489;28;20062;-85
2022/11/18 08:59:50;;;;;;;16.90;7.28;;;7.40;99.90;;;;;;5067502;28;20114;-85
2022/11/18 09:02:19;;;;;;;18.40;7.13;;;7.40;99.90;;;;;;5055877;28;20048;-86
2022/11/18 09:04:49;;;;;;;19.30;7.65;;;7.40;99.90;;;;;;5072887;28;20051;-86
2022/11/18 09:07:19;;;;;;;16.80;7.28;;;7.40;99.90;;;;;;5038248;28;20048;-85
2022/11/18 09:09:44;;;;;;;16.45;7.35;;;7.40;99.90;;;;;;5056032;28;20123;-86
2022/11/18 09:12:14;;;;;;;15.98;6.57;;;7.80;99.90;;;;;;5072373;28;20124;-86
2022/11/18 09:14:43;;;;;;;18.58;6.75;;;7.50;99.90;;;;;;5058591;28;20046;-86
2022/11/18 09:17:10;;;;;;;13.60;6.03;;;7.40;99.90;;;;;;5055737;28;20388;-86
2022/11/18 09:19:36;;;;;;;18.02;6.32;;;7.50;99.90;;;;;;5056106;28;20080;-83
2022/11/18 09:22:03;;;;;;;12.13;5.88;;;7.50;99.90;;;;;;5055682;28;20127;-83
2022/11/18 09:24:29;;;;;;;13.88;5.60;;;7.50;99.90;;;;;;5055638;28;20048;-83
2022/11/18 09:26:54;;;;;;;13.95;5.70;;;7.80;99.90;;;;;;5056055;28;20094;-83
2022/11/18 09:29:24;;;;;;;15.35;6.55;;;7.40;99.90;;;;;;5067893;28;20078;-83
2022/11/18 09:31:54;;;;;;;13.50;5.55;;;7.40;99.90;;;;;;5039575;28;20120;-83
2022/11/18 09:34:20;;;;;;;15.02;5.72;;;7.40;99.90;;;;;;5055343;28;20044;-83
2022/11/18 09:36:45;;;;;;;14.85;6.40;;;7.40;99.90;;;;;;5072513;28;20880;-84
2022/11/18 09:39:11;;;;;;;13.77;5.55;;;8.10;99.90;;;;;;5022741;28;20032;-84
2022/11/18 09:41:43;;;;;;;12.07;6.57;;;7.40;99.90;;;;;;5040836;28;20040;-84
2022/11/18 09:44:33;;;;;;;16.83;6.22;;;7.40;99.90;;;;;;5038838;28;20127;-84
2022/11/18 09:47:20;;;;;;;13.18;6.13;;;7.30;99.90;;;;;;5039105;28;20040;-84
2022/11/18 09:49:47;;;;;;;12.60;5.45;;;7.30;99.90;;;;;;5038644;28;20136;-84
2022/11/18 09:52:24;;;;;;;12.52;5.57;;;7.30;99.90;;;;;;5038184;28;20103;-84
2022/11/18 09:54:50;;;;;;;13.43;6.20;;;7.30;99.90;;;;;;5055719;28;20037;-83
2022/11/18 09:57:19;;;;;;;13.60;5.97;;;8.90;99.90;;;;;;5022436;28;20102;-83
2022/11/18 09:59:45;;;;;;;12.40;6.30;;;7.70;99.90;;;;;;5054725;28;20044;-83
2022/11/18 10:02:35;;;;;;;12.18;5.72;;;9.00;99.90;;;;;;5064189;28;20037;-83
2022/11/18 10:05:18;;;;;;;12.10;6.20;;;7.30;99.90;;;;;;5059396;28;20044;-83
2022/11/18 10:08:17;;;;;;;12.55;5.82;;;7.20;99.90;;;;;;5071901;28;20132;-83
2022/11/18 10:11:09;;;;;;;13.85;6.70;;;7.20;99.90;;;;;;5053912;28;20041;-83
2022/11/18 10:13:44;;;;;;;14.27;5.85;;;7.50;99.90;;;;;;5053186;28;20038;-83
2022/11/18 10:16:09;;;;;;;12.07;6.43;;;7.30;99.90;;;;;;5055009;28;20522;-83
2022/11/18 10:18:45;;;;;;;13.50;6.35;;;8.20;99.90;;;;;;5038607;28;20163;-83
2022/11/18 10:21:46;;;;;;;11.88;5.43;;;9.10;99.90;;;;;;5055220;28;20055;-83
2022/11/18 10:24:22;;;;;;;10.57;5.45;;;7.30;99.90;;;;;;5032475;28;20049;-83
2022/11/18 10:26:58;;;;;;;14.63;6.53;;;7.30;99.90;;;;;;5035702;28;20171;-83
2022/11/18 10:29:24;;;;;;;12.27;5.60;;;7.30;99.90;;;;;;5035274;28;20040;-83
2022/11/18 10:32:02;;;;;;;11.73;6.05;;;7.30;99.90;;;;;;5035032;28;20477;-83
2022/11/18 10:34:29;;;;;;;10.88;6.25;;;7.30;99.90;;;;;;5035414;28;20389;-83
2022/11/18 10:37:12;;;;;;;12.82;5.18;;;7.30;99.90;;;;;;5051832;28;20049;-83
2022/11/18 10:39:53;;;;;;;12.10;5.68;;;7.40;99.90;;;;;;5068392;28;20037;-83
2022/11/18 10:42:41;;;;;;;13.43;5.43;;;7.30;99.90;;;;;;5091544;28;20450;-83
2022/11/18 10:45:15;;;;;;;12.32;5.10;;;7.20;99.90;;;;;;5055241;28;20554;-86
2022/11/18 10:47:41;;;;;;;10.52;5.45;;;8.00;99.90;;;;;;5053598;28;20071;-86
2022/11/18 10:50:28;;;;;;;10.23;4.93;;;7.50;99.90;;;;;;5053616;28;20037;-86
2022/11/18 10:52:53;;;;;;;11.65;5.10;;;7.10;99.90;;;;;;5072532;28;20046;-86
2022/11/18 10:55:22;;;;;;;10.70;5.05;;;7.90;99.90;;;;;;5056107;28;20037;-86
2022/11/18 10:57:51;;;;;;;8.68;4.82;;;7.10;99.90;;;;;;5073738;28;20032;-86
2022/11/18 11:00:35;;;;;;;11.80;4.88;;;7.50;99.90;;;;;;5055203;28;20048;-84
2022/11/18 11:03:19;;;;;;;15.68;6.60;;;7.10;99.90;;;;;;5058931;28;20538;-84
2022/11/18 11:05:45;;;;;;;11.10;5.00;;;7.40;99.90;;;;;;5071667;28;20040;-84
2022/11/18 11:08:22;;;;;;;14.38;6.35;;;7.20;99.90;;;;;;5056497;28;20067;-84
2022/11/18 11:10:55;;;;;;;10.05;5.20;;;7.10;99.90;;;;;;5055617;28;20036;-84
2022/11/18 11:13:24;;;;;;;9.95;4.82;;;7.80;99.90;;;;;;5071008;28;20087;-83
2022/11/18 11:15:54;;;;;;;11.25;5.95;;;7.00;99.90;;;;;;5041504;28;20028;-84
2022/11/18 11:21:18;;;;;;;9.57;4.75;;;6.90;99.90;;;;;;5093385;28;20036;-83
2022/11/18 11:23:45;;;;;;;9.00;4.30;;;6.90;99.90;;;;;;5054231;28;20056;-83
2022/11/18 11:26:30;;;;;;;13.88;5.07;;;7.10;99.90;;;;;;5057090;28;20032;-83
2022/11/18 11:29:00;;;;;;;11.60;5.50;;;6.90;99.90;;;;;;5054702;28;20040;-83
2022/11/18 11:31:54;;;;;;;9.13;4.95;;;7.30;99.90;;;;;;5057177;28;20040;-83
2022/11/18 11:34:38;;;;;;;10.93;4.60;;;6.90;99.90;;;;;;5055423;28;20043;-83
2022/11/18 11:37:32;;;;;;;11.85;4.95;;;6.90;99.90;;;;;;5058009;28;20048;-83
2022/11/18 11:40:16;;;;;;;9.85;4.68;;;6.70;99.90;;;;;;5040831;28;20036;-83
2022/11/18 11:42:56;;;;;;;12.02;4.97;;;6.70;99.90;;;;;;5057870;28;20101;-83
2022/11/18 11:46:04;;;;;;;12.13;4.70;;;6.70;99.90;;;;;;5057714;28;20036;-84
2022/11/18 11:48:38;;;;;;;9.48;4.88;;;6.80;99.90;;;;;;5057649;28;20131;-84
2022/11/18 11:51:10;;;;;;;11.13;4.93;;;6.80;99.90;;;;;;5066021;28;20047;-83
2022/11/18 11:54:14;;;;;;;11.60;4.97;;;6.80;99.90;;;;;;5073827;28;20438;-83
2022/11/18 11:56:49;;;;;;;10.13;4.88;;;6.70;99.90;;;;;;5050115;28;20033;-83
2022/11/18 11:59:31;;;;;;;10.65;4.82;;;6.70;99.90;;;;;;5054157;28;20080;-83
2022/11/18 12:02:38;;;;;;;13.68;6.00;;;6.70;99.90;;;;;;5070884;28;20404;-83
2022/11/18 12:05:29;;;;;;;13.60;5.63;;;6.80;99.90;;;;;;5001267;28;20394;-83
2022/11/18 12:07:59;;;;;;;14.05;5.68;;;6.70;99.90;;;;;;5050781;28;20049;-85
2022/11/18 12:10:48;;;;;;;12.05;6.00;;;6.70;99.90;;;;;;5034028;28;20048;-85
2022/11/18 12:13:39;;;;;;;13.23;5.93;;;6.70;99.90;;;;;;5055739;28;20120;-86
2022/11/18 12:16:37;;;;;;;14.32;5.72;;;6.60;99.90;;;;;;5053378;28;20115;-86
2022/11/18 12:19:18;;;;;;;10.98;4.30;;;6.50;99.90;;;;;;5053419;28;20043;-86
2022/11/18 12:21:46;;;;;;;12.65;5.20;;;6.50;99.90;;;;;;5053629;28;20126;-87
2022/11/18 12:24:32;;;;;;;13.75;4.50;;;6.50;99.90;;;;;;5051358;28;20032;-84
2022/11/18 12:27:33;;;;;;;9.90;4.78;;;6.50;99.90;;;;;;5064890;28;20041;-85
2022/11/18 12:30:00;;;;;;;13.15;6.28;;;7.00;99.90;;;;;;5053319;28;20048;-84
2022/11/18 12:32:45;;;;;;;10.77;5.60;;;6.60;99.90;;;;;;5053223;28;20059;-84
2022/11/18 12:35:11;;;;;;;10.80;5.30;;;6.50;99.90;;;;;;5053190;28;20069;-84
2022/11/18 12:37:42;;;;;;;13.65;6.18;;;6.60;99.90;;;;;;5054408;28;20072;-84
2022/11/18 12:40:10;;;;;;;15.60;6.47;;;6.50;99.90;;;;;;5053249;28;20037;-84
2022/11/18 12:45:52;;;;;;;12.85;5.82;;;6.40;99.90;;;;;;5052664;28;20063;-84
2022/11/18 12:48:40;;;;;;;10.75;4.93;;;6.20;99.90;;;;;;5051738;28;20045;-84
2022/11/18 12:51:15;;;;;;;9.38;5.00;;;6.10;99.90;;;;;;5056042;28;20094;-84
2022/11/18 12:53:43;;;;;;;10.88;5.10;;;6.10;99.90;;;;;;5047643;28;20045;-84
2022/11/18 12:56:33;;;;;;;11.80;5.30;;;6.00;99.90;;;;;;5054830;28;20068;-84
2022/11/18 12:59:00;;;;;;;14.73;5.40;;;6.00;99.90;;;;;;5087069;28;20063;-84
2022/11/18 13:01:36;;;;;;;12.55;5.20;;;6.00;99.90;;;;;;5053386;28;20048;-83
2022/11/18 13:04:28;;;;;;;11.57;5.30;;;5.90;99.90;;;;;;5050331;28;20067;-84
2022/11/18 13:06:55;;;;;;;16.58;5.25;;;7.30;99.90;;;;;;5053993;28;20082;-84
2022/11/18 13:09:29;;;;;;;12.25;5.82;;;6.30;99.90;;;;;;5025287;28;20109;-84
2022/11/18 13:12:00;;;;;;;15.30;7.50;;;7.20;99.90;;;;;;5056196;28;20048;-84
2022/11/18 13:20:34;;;;;;;16.35;6.43;;;5.90;99.90;;;;;;5072765;28;20408;-85
2022/11/18 13:26:33;;;;;;;15.98;5.95;;;5.90;99.90;;;;;;5035508;28;20128;-84
2022/11/18 13:29:25;;;;;;;13.77;5.40;;;5.80;99.90;;;;;;5052695;28;20041;-85
2022/11/18 13:31:57;;;;;;;16.00;6.38;;;5.80;99.90;;;;;;5036243;28;20048;-84
2022/11/18 13:34:25;;;;;;;12.32;5.25;;;5.80;99.90;;;;;;5058572;28;20097;-84